Terminal Aerodrome Forecast
Issued by NWS

Current Version | Previous Version | Text Only | Print | Product List | Glossary On
Versions: 1 2 3 4 5 6 7 8 9 10 11 12 13 14 15 16 17 18 19 20 21 22 23 24 25 26 27 28 29 30
000
FTUS45 KBOI 240524
TAFTWF
TAF
KTWF 240524Z 2406/2506 24012KT P6SM FEW200
     FM241000 24013G23KT P6SM SKC
     FM241200 24013KT P6SM SKC
     FM241800 28015G25KT P6SM SKC
     FM250100 25009KT P6SM SKC=

USA.gov is the U.S. government's official web portal to all federal, state and local government web resources and services.